sensor_id;sensor_type;location;lat;lon;timestamp;temperature;humidity
12817;DHT22;6473;51.552;6.716;2023-03-03T02:05:18;1.50;99.90
12817;DHT22;6473;51.552;6.716;2023-03-03T02:10:14;1.50;99.90
12817;DHT22;6473;51.552;6.716;2023-03-03T02:12:45;1.50;99.90
12817;DHT22;6473;51.552;6.716;2023-03-03T02:15:19;1.50;99.90
12817;DHT22;6473;51.552;6.716;2023-03-03T02:17:47;1.40;99.90
12817;DHT22;6473;51.552;6.716;2023-03-03T02:20:22;1.40;99.90
12817;DHT22;6473;51.552;6.716;2023-03-03T02:22:58;1.40;99.90
12817;DHT22;6473;51.552;6.716;2023-03-03T02:25:36;1.40;99.90
12817;DHT22;6473;51.552;6.716;2023-03-03T02:28:06;1.50;99.90
12817;DHT22;6473;51.552;6.716;2023-03-03T02:30:36;1.50;99.90
12817;DHT22;6473;51.552;6.716;2023-03-03T02:33:04;1.40;99.90
12817;DHT22;6473;51.552;6.716;2023-03-03T02:35:33;1.40;99.90
12817;DHT22;6473;51.552;6.716;2023-03-03T02:38:11;1.40;99.90
12817;DHT22;6473;51.552;6.716;2023-03-03T02:40:44;1.40;99.90
12817;DHT22;6473;51.552;6.716;2023-03-03T02:43:18;1.40;99.90
12817;DHT22;6473;51.552;6.716;2023-03-03T02:53:10;1.20;99.90
12817;DHT22;6473;51.552;6.716;2023-03-03T03:35:04;1.40;99.90
12817;DHT22;6473;51.552;6.716;2023-03-03T04:09:36;1.20;99.90
12817;DHT22;6473;51.552;6.716;2023-03-03T04:26:52;1.20;99.90
12817;DHT22;6473;51.552;6.716;2023-03-03T04:44:07;1.10;99.90
12817;DHT22;6473;51.552;6.716;2023-03-03T04:49:03;1.10;99.90
12817;DHT22;6473;51.552;6.716;2023-03-03T05:11:17;0.90;99.90
12817;DHT22;6473;51.552;6.716;2023-03-03T05:23:34;1.00;99.90
12817;DHT22;6473;51.552;6.716;2023-03-03T05:43:16;2.20;99.90
12817;DHT22;6473;51.552;6.716;2023-03-03T05:48:11;1.10;99.90
12817;DHT22;6473;51.552;6.716;2023-03-03T05:50:38;1.30;99.90
12817;DHT22;6473;51.552;6.716;2023-03-03T05:53:07;1.30;99.90
12817;DHT22;6473;51.552;6.716;2023-03-03T06:07:50;1.20;99.90
12817;DHT22;6473;51.552;6.716;2023-03-03T06:10:18;1.10;99.90
12817;DHT22;6473;51.552;6.716;2023-03-03T06:20:11;1.30;99.90
12817;DHT22;6473;51.552;6.716;2023-03-03T06:27:34;1.10;99.90
12817;DHT22;6473;51.552;6.716;2023-03-03T06:49:41;1.40;99.90
12817;DHT22;6473;51.552;6.716;2023-03-03T06:52:11;1.50;99.90
12817;DHT22;6473;51.552;6.716;2023-03-03T06:54:40;1.50;99.90
12817;DHT22;6473;51.552;6.716;2023-03-03T06:57:15;2.50;99.90
12817;DHT22;6473;51.552;6.716;2023-03-03T07:02:15;1.60;99.90
12817;DHT22;6473;51.552;6.716;2023-03-03T07:04:44;1.60;99.90
12817;DHT22;6473;51.552;6.716;2023-03-03T07:07:16;1.60;99.90
12817;DHT22;6473;51.552;6.716;2023-03-03T07:09:44;1.80;99.90
12817;DHT22;6473;51.552;6.716;2023-03-03T07:12:14;1.40;99.90
12817;DHT22;6473;51.552;6.716;2023-03-03T07:14:42;1.50;99.90
12817;DHT22;6473;51.552;6.716;2023-03-03T07:17:16;1.60;99.90
12817;DHT22;6473;51.552;6.716;2023-03-03T07:19:44;1.60;99.90
12817;DHT22;6473;51.552;6.716;2023-03-03T07:22:15;1.60;99.90
12817;DHT22;6473;51.552;6.716;2023-03-03T07:24:43;1.70;99.90
12817;DHT22;6473;51.552;6.716;2023-03-03T07:27:13;1.60;99.90
12817;DHT22;6473;51.552;6.716;2023-03-03T07:29:46;1.60;99.90
12817;DHT22;6473;51.552;6.716;2023-03-03T07:32:24;1.60;99.90
12817;DHT22;6473;51.552;6.716;2023-03-03T07:34:53;1.60;99.90
12817;DHT22;6473;51.552;6.716;2023-03-03T07:37:28;1.60;99.90
12817;DHT22;6473;51.552;6.716;2023-03-03T07:39:56;1.60;99.90
12817;DHT22;6473;51.552;6.716;2023-03-03T07:42:25;1.80;99.90
12817;DHT22;6473;51.552;6.716;2023-03-03T07:45:22;1.80;99.90
12817;DHT22;6473;51.552;6.716;2023-03-03T07:47:54;1.80;99.90
12817;DHT22;6473;51.552;6.716;2023-03-03T07:50:22;1.70;99.90
12817;DHT22;6473;51.552;6.716;2023-03-03T07:52:54;1.80;99.90
12817;DHT22;6473;51.552;6.716;2023-03-03T07:55:30;1.90;99.90
12817;DHT22;6473;51.552;6.716;2023-03-03T07:58:14;2.00;99.90
12817;DHT22;6473;51.552;6.716;2023-03-03T08:03:55;2.00;99.90
12817;DHT22;6473;51.552;6.716;2023-03-03T08:09:46;2.00;99.90
12817;DHT22;6473;51.552;6.716;2023-03-03T08:12:38;2.00;99.90
12817;DHT22;6473;51.552;6.716;2023-03-03T08:15:23;2.00;99.90
12817;DHT22;6473;51.552;6.716;2023-03-03T08:17:52;2.10;99.90
12817;DHT22;6473;51.552;6.716;2023-03-03T08:20:52;2.20;99.90
12817;DHT22;6473;51.552;6.716;2023-03-03T08:23:20;2.30;99.90
12817;DHT22;6473;51.552;6.716;2023-03-03T08:25:48;2.30;99.90
12817;DHT22;6473;51.552;6.716;2023-03-03T08:30:44;2.40;99.90
12817;DHT22;6473;51.552;6.716;2023-03-03T08:33:11;2.40;99.90
12817;DHT22;6473;51.552;6.716;2023-03-03T08:35:38;2.50;99.90
12817;DHT22;6473;51.552;6.716;2023-03-03T08:38:08;2.50;99.90
12817;DHT22;6473;51.552;6.716;2023-03-03T08:40:35;2.50;99.90
12817;DHT22;6473;51.552;6.716;2023-03-03T08:43:03;2.60;99.90
12817;DHT22;6473;51.552;6.716;2023-03-03T08:45:30;2.60;99.90
12817;DHT22;6473;51.552;6.716;2023-03-03T08:50:26;2.60;99.90
12817;DHT22;6473;51.552;6.716;2023-03-03T08:52:53;0.60;99.90
12817;DHT22;6473;51.552;6.716;2023-03-03T08:55:22;2.50;99.90
12817;DHT22;6473;51.552;6.716;2023-03-03T09:00:17;2.60;99.90
12817;DHT22;6473;51.552;6.716;2023-03-03T09:02:45;2.50;99.90
12817;DHT22;6473;51.552;6.716;2023-03-03T09:05:12;2.40;99.90
12817;DHT22;6473;51.552;6.716;2023-03-03T09:07:40;2.40;99.90
12817;DHT22;6473;51.552;6.716;2023-03-03T09:10:09;2.30;99.90
12817;DHT22;6473;51.552;6.716;2023-03-03T09:12:40;2.20;99.90
12817;DHT22;6473;51.552;6.716;2023-03-03T09:15:15;2.30;99.90
12817;DHT22;6473;51.552;6.716;2023-03-03T09:17:44;2.20;99.90
12817;DHT22;6473;51.552;6.716;2023-03-03T09:20:31;2.10;99.90
12817;DHT22;6473;51.552;6.716;2023-03-03T09:22:59;2.20;99.90
12817;DHT22;6473;51.552;6.716;2023-03-03T09:28:21;2.40;99.90
12817;DHT22;6473;51.552;6.716;2023-03-03T09:30:53;2.60;99.90
12817;DHT22;6473;51.552;6.716;2023-03-03T09:33:25;2.70;99.90
12817;DHT22;6473;51.552;6.716;2023-03-03T09:35:57;2.70;99.90
12817;DHT22;6473;51.552;6.716;2023-03-03T09:38:29;2.70;99.90
12817;DHT22;6473;51.552;6.716;2023-03-03T09:41:23;2.70;99.90
12817;DHT22;6473;51.552;6.716;2023-03-03T09:44:11;2.70;99.90
12817;DHT22;6473;51.552;6.716;2023-03-03T09:46:47;2.80;99.90
12817;DHT22;6473;51.552;6.716;2023-03-03T09:49:23;2.90;99.90
12817;DHT22;6473;51.552;6.716;2023-03-03T09:52:11;2.90;99.90
12817;DHT22;6473;51.552;6.716;2023-03-03T09:54:53;3.00;99.90
12817;DHT22;6473;51.552;6.716;2023-03-03T09:57:25;2.90;99.90
12817;DHT22;6473;51.552;6.716;2023-03-03T10:00:13;2.80;99.90
12817;DHT22;6473;51.552;6.716;2023-03-03T10:02:53;3.00;99.90
12817;DHT22;6473;51.552;6.716;2023-03-03T10:05:37;3.20;99.90
12817;DHT22;6473;51.552;6.716;2023-03-03T10:08:20;3.60;99.90
12817;DHT22;6473;51.552;6.716;2023-03-03T10:11:02;3.10;99.90
12817;DHT22;6473;51.552;6.716;2023-03-03T10:13:43;3.10;99.90
12817;DHT22;6473;51.552;6.716;2023-03-03T10:19:37;2.90;99.90
12817;DHT22;6473;51.552;6.716;2023-03-03T10:22:20;2.90;99.90
12817;DHT22;6473;51.552;6.716;2023-03-03T10:24:59;3.20;99.90
12817;DHT22;6473;51.552;6.716;2023-03-03T10:27:47;3.30;99.90
12817;DHT22;6473;51.552;6.716;2023-03-03T10:30:22;3.30;99.90
12817;DHT22;6473;51.552;6.716;2023-03-03T10:32:57;3.40;99.90
12817;DHT22;6473;51.552;6.716;2023-03-03T10:35:38;3.60;99.90
12817;DHT22;6473;51.552;6.716;2023-03-03T10:38:23;3.50;99.90
12817;DHT22;6473;51.552;6.716;2023-03-03T10:40:57;3.40;99.90
12817;DHT22;6473;51.552;6.716;2023-03-03T10:43:49;3.50;99.90
12817;DHT22;6473;51.552;6.716;2023-03-03T10:46:45;3.60;99.90
12817;DHT22;6473;51.552;6.716;2023-03-03T10:49:27;3.90;99.90
12817;DHT22;6473;51.552;6.716;2023-03-03T10:52:10;3.80;99.90
12817;DHT22;6473;51.552;6.716;2023-03-03T10:54:51;4.20;99.90
12817;DHT22;6473;51.552;6.716;2023-03-03T10:57:25;4.30;99.90
12817;DHT22;6473;51.552;6.716;2023-03-03T11:00:07;4.20;99.90
12817;DHT22;6473;51.552;6.716;2023-03-03T11:02:46;4.10;99.90
12817;DHT22;6473;51.552;6.716;2023-03-03T11:05:31;4.10;99.90
12817;DHT22;6473;51.552;6.716;2023-03-03T11:08:02;4.40;99.90
12817;DHT22;6473;51.552;6.716;2023-03-03T11:10:45;4.50;99.90
12817;DHT22;6473;51.552;6.716;2023-03-03T11:13:19;4.90;99.90
12817;DHT22;6473;51.552;6.716;2023-03-03T11:16:01;5.00;99.90
12817;DHT22;6473;51.552;6.716;2023-03-03T11:18:36;5.00;99.90
12817;DHT22;6473;51.552;6.716;2023-03-03T11:21:15;5.10;99.90
12817;DHT22;6473;51.552;6.716;2023-03-03T11:27:05;5.00;99.90
12817;DHT22;6473;51.552;6.716;2023-03-03T11:29:53;5.10;99.90
12817;DHT22;6473;51.552;6.716;2023-03-03T11:32:29;5.20;99.90
12817;DHT22;6473;51.552;6.716;2023-03-03T11:35:05;5.40;99.90
12817;DHT22;6473;51.552;6.716;2023-03-03T11:37:41;5.30;99.90
12817;DHT22;6473;51.552;6.716;2023-03-03T11:40:14;5.10;99.90
12817;DHT22;6473;51.552;6.716;2023-03-03T11:42:51;5.00;99.90
12817;DHT22;6473;51.552;6.716;2023-03-03T11:45:22;5.00;99.90
12817;DHT22;6473;51.552;6.716;2023-03-03T11:47:57;5.40;99.90
12817;DHT22;6473;51.552;6.716;2023-03-03T11:50:30;5.80;99.90
12817;DHT22;6473;51.552;6.716;2023-03-03T11:53:08;5.70;99.90
12817;DHT22;6473;51.552;6.716;2023-03-03T11:55:41;6.20;99.90
12817;DHT22;6473;51.552;6.716;2023-03-03T11:58:14;6.40;98.30
12817;DHT22;6473;51.552;6.716;2023-03-03T12:00:46;6.70;97.80
12817;DHT22;6473;51.552;6.716;2023-03-03T12:03:25;7.00;96.40
12817;DHT22;6473;51.552;6.716;2023-03-03T12:06:01;7.60;91.50
12817;DHT22;6473;51.552;6.716;2023-03-03T12:08:42;7.80;91.50
12817;DHT22;6473;51.552;6.716;2023-03-03T12:11:16;8.00;86.60
12817;DHT22;6473;51.552;6.716;2023-03-03T12:13:53;8.80;76.10
12817;DHT22;6473;51.552;6.716;2023-03-03T12:16:27;9.10;56.70
12817;DHT22;6473;51.552;6.716;2023-03-03T12:19:11;8.90;59.50
12817;DHT22;6473;51.552;6.716;2023-03-03T12:21:52;9.80;53.50
12817;DHT22;6473;51.552;6.716;2023-03-03T12:24:37;10.40;21.60
12817;DHT22;6473;51.552;6.716;2023-03-03T12:27:14;10.90;9.40
12817;DHT22;6473;51.552;6.716;2023-03-03T12:29:45;11.60;1.00
12817;DHT22;6473;51.552;6.716;2023-03-03T12:32:25;12.70;1.00
12817;DHT22;6473;51.552;6.716;2023-03-03T12:35:00;14.00;1.00
12817;DHT22;6473;51.552;6.716;2023-03-03T12:37:46;14.00;1.00
12817;DHT22;6473;51.552;6.716;2023-03-03T12:40:19;14.20;1.00
12817;DHT22;6473;51.552;6.716;2023-03-03T12:45:47;14.90;1.00
12817;DHT22;6473;51.552;6.716;2023-03-03T12:48:20;14.40;1.00
12817;DHT22;6473;51.552;6.716;2023-03-03T12:50:56;14.80;1.00
12817;DHT22;6473;51.552;6.716;2023-03-03T12:53:49;14.70;1.00
12817;DHT22;6473;51.552;6.716;2023-03-03T12:56:25;14.30;1.00
12817;DHT22;6473;51.552;6.716;2023-03-03T12:58:59;15.00;1.00
12817;DHT22;6473;51.552;6.716;2023-03-03T13:01:40;15.20;1.00
12817;DHT22;6473;51.552;6.716;2023-03-03T13:04:16;16.20;1.00
12817;DHT22;6473;51.552;6.716;2023-03-03T13:06:55;15.80;1.00
12817;DHT22;6473;51.552;6.716;2023-03-03T13:09:32;15.40;1.00
12817;DHT22;6473;51.552;6.716;2023-03-03T13:12:18;15.80;1.00
12817;DHT22;6473;51.552;6.716;2023-03-03T13:14:51;16.20;1.00
12817;DHT22;6473;51.552;6.716;2023-03-03T13:17:25;17.30;1.00
12817;DHT22;6473;51.552;6.716;2023-03-03T13:19:56;18.30;1.00
12817;DHT22;6473;51.552;6.716;2023-03-03T13:22:33;17.60;1.00
12817;DHT22;6473;51.552;6.716;2023-03-03T13:25:06;16.40;1.00
12817;DHT22;6473;51.552;6.716;2023-03-03T13:27:39;15.40;1.00
12817;DHT22;6473;51.552;6.716;2023-03-03T13:30:15;16.00;1.00
12817;DHT22;6473;51.552;6.716;2023-03-03T13:32:50;16.70;1.00
12817;DHT22;6473;51.552;6.716;2023-03-03T13:35:31;18.50;1.00
12817;DHT22;6473;51.552;6.716;2023-03-03T13:37:59;19.10;1.00
12817;DHT22;6473;51.552;6.716;2023-03-03T13:40:37;19.70;1.00
12817;DHT22;6473;51.552;6.716;2023-03-03T13:43:14;19.70;1.00
12817;DHT22;6473;51.552;6.716;2023-03-03T13:45:50;20.40;1.00
12817;DHT22;6473;51.552;6.716;2023-03-03T13:48:33;19.60;1.00
12817;DHT22;6473;51.552;6.716;2023-03-03T13:51:08;19.70;1.00
12817;DHT22;6473;51.552;6.716;2023-03-03T13:53:42;19.30;1.00
12817;DHT22;6473;51.552;6.716;2023-03-03T13:56:27;19.70;1.00
12817;DHT22;6473;51.552;6.716;2023-03-03T13:59:02;21.10;1.00
12817;DHT22;6473;51.552;6.716;2023-03-03T14:01:43;22.10;1.00
12817;DHT22;6473;51.552;6.716;2023-03-03T14:04:31;22.00;1.00
12817;DHT22;6473;51.552;6.716;2023-03-03T14:07:04;22.10;1.00
12817;DHT22;6473;51.552;6.716;2023-03-03T14:09:48;22.30;1.00
12817;DHT22;6473;51.552;6.716;2023-03-03T14:12:21;21.30;1.00
12817;DHT22;6473;51.552;6.716;2023-03-03T14:14:58;20.90;1.00
12817;DHT22;6473;51.552;6.716;2023-03-03T14:17:33;21.60;1.00
12817;DHT22;6473;51.552;6.716;2023-03-03T14:20:13;22.50;1.00
12817;DHT22;6473;51.552;6.716;2023-03-03T14:22:45;22.90;1.00
12817;DHT22;6473;51.552;6.716;2023-03-03T14:25:15;21.70;1.00
12817;DHT22;6473;51.552;6.716;2023-03-03T14:28:04;22.00;1.00
12817;DHT22;6473;51.552;6.716;2023-03-03T14:30:40;22.20;1.00
12817;DHT22;6473;51.552;6.716;2023-03-03T14:33:17;22.50;1.00
12817;DHT22;6473;51.552;6.716;2023-03-03T14:35:50;22.30;1.00
12817;DHT22;6473;51.552;6.716;2023-03-03T14:38:18;21.20;1.00
12817;DHT22;6473;51.552;6.716;2023-03-03T14:40:46;20.90;1.00
12817;DHT22;6473;51.552;6.716;2023-03-03T14:43:22;20.70;1.00
12817;DHT22;6473;51.552;6.716;2023-03-03T14:45:52;22.00;1.00
12817;DHT22;6473;51.552;6.716;2023-03-03T14:48:20;21.90;1.00
12817;DHT22;6473;51.552;6.716;2023-03-03T14:50:50;21.30;1.00
12817;DHT22;6473;51.552;6.716;2023-03-03T14:53:29;21.90;1.00
12817;DHT22;6473;51.552;6.716;2023-03-03T14:56:14;20.60;1.00
12817;DHT22;6473;51.552;6.716;2023-03-03T14:58:42;20.20;1.00
12817;DHT22;6473;51.552;6.716;2023-03-03T15:01:16;20.10;1.00
12817;DHT22;6473;51.552;6.716;2023-03-03T15:03:48;20.50;1.00
12817;DHT22;6473;51.552;6.716;2023-03-03T15:06:34;19.60;1.00
12817;DHT22;6473;51.552;6.716;2023-03-03T15:09:24;20.20;1.00
12817;DHT22;6473;51.552;6.716;2023-03-03T15:11:53;18.40;1.00
12817;DHT22;6473;51.552;6.716;2023-03-03T15:14:28;16.20;1.00
12817;DHT22;6473;51.552;6.716;2023-03-03T15:17:16;15.70;1.00
12817;DHT22;6473;51.552;6.716;2023-03-03T15:19:49;15.90;1.00
12817;DHT22;6473;51.552;6.716;2023-03-03T15:22:29;15.80;1.00
12817;DHT22;6473;51.552;6.716;2023-03-03T15:25:03;15.70;1.00
12817;DHT22;6473;51.552;6.716;2023-03-03T15:27:36;16.10;1.00
12817;DHT22;6473;51.552;6.716;2023-03-03T15:30:14;15.80;1.00
12817;DHT22;6473;51.552;6.716;2023-03-03T15:32:55;15.90;1.00
12817;DHT22;6473;51.552;6.716;2023-03-03T15:35:33;15.70;1.00
12817;DHT22;6473;51.552;6.716;2023-03-03T15:38:06;15.10;1.00
12817;DHT22;6473;51.552;6.716;2023-03-03T15:40:41;14.60;1.00
12817;DHT22;6473;51.552;6.716;2023-03-03T15:43:20;15.50;1.00
12817;DHT22;6473;51.552;6.716;2023-03-03T15:45:53;16.00;1.00
12817;DHT22;6473;51.552;6.716;2023-03-03T15:48:47;15.60;1.00
12817;DHT22;6473;51.552;6.716;2023-03-03T15:51:24;15.40;1.00
12817;DHT22;6473;51.552;6.716;2023-03-03T15:54:20;14.80;1.00
12817;DHT22;6473;51.552;6.716;2023-03-03T15:56:54;14.50;1.00
12817;DHT22;6473;51.552;6.716;2023-03-03T15:59:39;14.70;1.00
12817;DHT22;6473;51.552;6.716;2023-03-03T16:02:15;13.90;1.00
12817;DHT22;6473;51.552;6.716;2023-03-03T16:04:51;14.00;1.00
12817;DHT22;6473;51.552;6.716;2023-03-03T16:07:28;14.30;1.00
12817;DHT22;6473;51.552;6.716;2023-03-03T16:10:05;14.50;1.00
12817;DHT22;6473;51.552;6.716;2023-03-03T16:12:42;14.50;1.00
12817;DHT22;6473;51.552;6.716;2023-03-03T16:15:23;13.90;1.00
12817;DHT22;6473;51.552;6.716;2023-03-03T16:17:59;13.80;1.00
12817;DHT22;6473;51.552;6.716;2023-03-03T16:20:36;13.10;1.00
12817;DHT22;6473;51.552;6.716;2023-03-03T16:23:15;12.60;1.00
12817;DHT22;6473;51.552;6.716;2023-03-03T16:26:06;11.20;1.00
12817;DHT22;6473;51.552;6.716;2023-03-03T16:28:46;10.40;14.70
12817;DHT22;6473;51.552;6.716;2023-03-03T16:31:20;10.10;18.40
12817;DHT22;6473;51.552;6.716;2023-03-03T16:33:52;10.00;25.90
12817;DHT22;6473;51.552;6.716;2023-03-03T16:36:30;9.60;39.20
12817;DHT22;6473;51.552;6.716;2023-03-03T16:39:02;9.30;49.60
12817;DHT22;6473;51.552;6.716;2023-03-03T16:44:17;8.90;64.40
12817;DHT22;6473;51.552;6.716;2023-03-03T16:46:46;8.50;71.00
12817;DHT22;6473;51.552;6.716;2023-03-03T16:49:19;8.40;76.50
12817;DHT22;6473;51.552;6.716;2023-03-03T16:51:53;8.10;81.30
12817;DHT22;6473;51.552;6.716;2023-03-03T16:54:31;8.00;86.90
12817;DHT22;6473;51.552;6.716;2023-03-03T16:57:05;7.70;90.90
12817;DHT22;6473;51.552;6.716;2023-03-03T16:59:44;7.40;92.20
12817;DHT22;6473;51.552;6.716;2023-03-03T17:05:23;7.00;95.20
12817;DHT22;6473;51.552;6.716;2023-03-03T17:08:06;6.90;96.20
12817;DHT22;6473;51.552;6.716;2023-03-03T17:10:41;6.80;96.70
12817;DHT22;6473;51.552;6.716;2023-03-03T17:13:25;6.60;97.20
12817;DHT22;6473;51.552;6.716;2023-03-03T17:16:01;5.00;99.10
12817;DHT22;6473;51.552;6.716;2023-03-03T17:18:38;6.40;99.90
12817;DHT22;6473;51.552;6.716;2023-03-03T17:21:15;6.10;99.90
12817;DHT22;6473;51.552;6.716;2023-03-03T17:23:58;6.20;99.90
12817;DHT22;6473;51.552;6.716;2023-03-03T17:26:35;6.20;99.90
12817;DHT22;6473;51.552;6.716;2023-03-03T17:32:11;6.30;99.90
12817;DHT22;6473;51.552;6.716;2023-03-03T17:34:52;6.40;99.90
12817;DHT22;6473;51.552;6.716;2023-03-03T17:37:29;6.50;99.90
12817;DHT22;6473;51.552;6.716;2023-03-03T17:40:10;6.30;99.90
12817;DHT22;6473;51.552;6.716;2023-03-03T17:42:44;6.40;99.90
12817;DHT22;6473;51.552;6.716;2023-03-03T17:48:03;6.40;99.90
12817;DHT22;6473;51.552;6.716;2023-03-03T17:53:21;6.50;99.90
12817;DHT22;6473;51.552;6.716;2023-03-03T17:56:04;6.60;99.90
12817;DHT22;6473;51.552;6.716;2023-03-03T17:58:54;6.70;99.90
12817;DHT22;6473;51.552;6.716;2023-03-03T18:01:36;6.70;99.90
12817;DHT22;6473;51.552;6.716;2023-03-03T18:04:17;6.70;99.90
12817;DHT22;6473;51.552;6.716;2023-03-03T18:07:16;6.60;99.90
12817;DHT22;6473;51.552;6.716;2023-03-03T18:10:02;6.50;99.90
12817;DHT22;6473;51.552;6.716;2023-03-03T18:12:41;6.40;99.90
12817;DHT22;6473;51.552;6.716;2023-03-03T18:15:19;6.40;99.90
12817;DHT22;6473;51.552;6.716;2023-03-03T18:18:01;6.50;99.90
12817;DHT22;6473;51.552;6.716;2023-03-03T18:20:52;6.50;99.90
12817;DHT22;6473;51.552;6.716;2023-03-03T18:25:58;6.50;99.90
12817;DHT22;6473;51.552;6.716;2023-03-03T18:28:45;6.50;99.90
12817;DHT22;6473;51.552;6.716;2023-03-03T18:34:00;6.50;99.90
12817;DHT22;6473;51.552;6.716;2023-03-03T18:36:37;6.30;99.90
12817;DHT22;6473;51.552;6.716;2023-03-03T18:39:05;6.20;99.90
12817;DHT22;6473;51.552;6.716;2023-03-03T18:41:32;6.10;99.90
12817;DHT22;6473;51.552;6.716;2023-03-03T18:44:02;6.20;99.90
12817;DHT22;6473;51.552;6.716;2023-03-03T18:46:52;6.20;99.90
12817;DHT22;6473;51.552;6.716;2023-03-03T18:49:49;6.20;99.90
12817;DHT22;6473;51.552;6.716;2023-03-03T18:52:21;6.20;99.90
12817;DHT22;6473;51.552;6.716;2023-03-03T18:58:01;6.20;99.90
12817;DHT22;6473;51.552;6.716;2023-03-03T19:00:49;6.20;99.90
12817;DHT22;6473;51.552;6.716;2023-03-03T19:03:25;6.20;99.90
12817;DHT22;6473;51.552;6.716;2023-03-03T19:05:53;6.20;99.90
12817;DHT22;6473;51.552;6.716;2023-03-03T19:08:25;6.20;99.90
12817;DHT22;6473;51.552;6.716;2023-03-03T19:10:54;6.10;99.90
12817;DHT22;6473;51.552;6.716;2023-03-03T19:13:42;6.20;99.90
12817;DHT22;6473;51.552;6.716;2023-03-03T19:19:13;6.20;99.90
12817;DHT22;6473;51.552;6.716;2023-03-03T19:21:41;6.10;99.90
12817;DHT22;6473;51.552;6.716;2023-03-03T19:24:30;6.30;99.90
12817;DHT22;6473;51.552;6.716;2023-03-03T19:30:13;6.20;99.90
12817;DHT22;6473;51.552;6.716;2023-03-03T19:33:06;6.30;99.90
12817;DHT22;6473;51.552;6.716;2023-03-03T19:35:50;6.00;99.90
12817;DHT22;6473;51.552;6.716;2023-03-03T19:38:26;6.00;99.90
12817;DHT22;6473;51.552;6.716;2023-03-03T19:41:02;6.00;99.90
12817;DHT22;6473;51.552;6.716;2023-03-03T19:43:42;6.00;99.90
12817;DHT22;6473;51.552;6.716;2023-03-03T19:46:30;6.10;99.90
12817;DHT22;6473;51.552;6.716;2023-03-03T19:49:06;6.00;99.90
12817;DHT22;6473;51.552;6.716;2023-03-03T19:51:46;6.00;99.90
12817;DHT22;6473;51.552;6.716;2023-03-03T19:54:27;6.00;99.90
12817;DHT22;6473;51.552;6.716;2023-03-03T19:57:02;5.90;99.90
12817;DHT22;6473;51.552;6.716;2023-03-03T19:59:35;6.00;99.90
12817;DHT22;6473;51.552;6.716;2023-03-03T20:02:26;6.00;99.90
12817;DHT22;6473;51.552;6.716;2023-03-03T20:05:07;6.00;99.90
12817;DHT22;6473;51.552;6.716;2023-03-03T20:07:45;5.90;99.90
12817;DHT22;6473;51.552;6.716;2023-03-03T20:13:30;5.90;99.90
12817;DHT22;6473;51.552;6.716;2023-03-03T20:16:07;6.30;99.90
12817;DHT22;6473;51.552;6.716;2023-03-03T20:18:47;5.90;99.90
12817;DHT22;6473;51.552;6.716;2023-03-03T20:21:31;5.80;99.90
12817;DHT22;6473;51.552;6.716;2023-03-03T20:24:09;5.90;99.90
12817;DHT22;6473;51.552;6.716;2023-03-03T20:26:46;5.80;99.90
12817;DHT22;6473;51.552;6.716;2023-03-03T20:29:41;5.80;99.90
12817;DHT22;6473;51.552;6.716;2023-03-03T20:32:18;5.70;99.90
12817;DHT22;6473;51.552;6.716;2023-03-03T20:34:54;5.70;99.90
12817;DHT22;6473;51.552;6.716;2023-03-03T20:37:34;5.80;99.90
12817;DHT22;6473;51.552;6.716;2023-03-03T20:40:16;5.60;99.90
12817;DHT22;6473;51.552;6.716;2023-03-03T20:42:52;5.60;99.90
12817;DHT22;6473;51.552;6.716;2023-03-03T20:45:32;5.60;99.90
12817;DHT22;6473;51.552;6.716;2023-03-03T20:48:13;5.50;99.90
12817;DHT22;6473;51.552;6.716;2023-03-03T20:50:52;5.40;99.90
12817;DHT22;6473;51.552;6.716;2023-03-03T20:53:25;5.40;99.90
12817;DHT22;6473;51.552;6.716;2023-03-03T20:56:02;5.40;99.90
12817;DHT22;6473;51.552;6.716;2023-03-03T20:58:41;5.50;99.90
12817;DHT22;6473;51.552;6.716;2023-03-03T21:01:14;5.50;99.90
12817;DHT22;6473;51.552;6.716;2023-03-03T21:03:43;5.30;99.90
12817;DHT22;6473;51.552;6.716;2023-03-03T21:06:12;5.50;99.90
12817;DHT22;6473;51.552;6.716;2023-03-03T21:08:48;5.40;99.90
12817;DHT22;6473;51.552;6.716;2023-03-03T21:11:21;5.40;99.90
12817;DHT22;6473;51.552;6.716;2023-03-03T21:13:49;5.40;99.90
12817;DHT22;6473;51.552;6.716;2023-03-03T21:16:30;5.50;99.90
12817;DHT22;6473;51.552;6.716;2023-03-03T21:18:59;5.50;99.90
12817;DHT22;6473;51.552;6.716;2023-03-03T21:21:29;5.50;99.90
12817;DHT22;6473;51.552;6.716;2023-03-03T21:26:50;5.60;99.90
12817;DHT22;6473;51.552;6.716;2023-03-03T21:29:23;5.60;99.90
12817;DHT22;6473;51.552;6.716;2023-03-03T21:31:52;5.30;99.90
12817;DHT22;6473;51.552;6.716;2023-03-03T21:34:23;5.50;99.90
12817;DHT22;6473;51.552;6.716;2023-03-03T21:36:51;5.30;99.90
12817;DHT22;6473;51.552;6.716;2023-03-03T21:39:20;5.50;99.90
12817;DHT22;6473;51.552;6.716;2023-03-03T21:41:54;5.40;99.90
12817;DHT22;6473;51.552;6.716;2023-03-03T21:44:32;5.50;99.90
12817;DHT22;6473;51.552;6.716;2023-03-03T21:56:52;5.50;99.90
12817;DHT22;6473;51.552;6.716;2023-03-03T21:59:21;5.40;99.90
12817;DHT22;6473;51.552;6.716;2023-03-03T22:04:15;5.50;99.90
12817;DHT22;6473;51.552;6.716;2023-03-03T22:09:09;5.40;99.90
12817;DHT22;6473;51.552;6.716;2023-03-03T22:14:05;5.30;99.90
12817;DHT22;6473;51.552;6.716;2023-03-03T22:23:56;5.30;99.90
12817;DHT22;6473;51.552;6.716;2023-03-03T22:26:23;5.20;99.90
12817;DHT22;6473;51.552;6.716;2023-03-03T22:31:19;5.20;99.90
12817;DHT22;6473;51.552;6.716;2023-03-03T22:33:48;5.30;99.90
12817;DHT22;6473;51.552;6.716;2023-03-03T22:48:33;5.30;99.90
12817;DHT22;6473;51.552;6.716;2023-03-03T22:51:01;5.30;99.90
12817;DHT22;6473;51.552;6.716;2023-03-03T23:05:47;5.30;99.90
12817;DHT22;6473;51.552;6.716;2023-03-03T23:08:16;5.20;99.90
12817;DHT22;6473;51.552;6.716;2023-03-03T23:18:06;5.30;99.90
12817;DHT22;6473;51.552;6.716;2023-03-03T23:23:03;5.30;99.90
12817;DHT22;6473;51.552;6.716;2023-03-03T23:27:58;5.40;99.90
12817;DHT22;6473;51.552;6.716;2023-03-03T23:30:27;5.40;99.90
12817;DHT22;6473;51.552;6.716;2023-03-03T23:57:30;5.50;99.90
